sensor_id;sensor_type;location;lat;lon;timestamp;P1;durP1;ratioP1;P2;durP2;ratioP2
13228;SDS011;6680;53.220;10.402;2023-05-01T00:01:54;6.93;;;4.53;;
13228;SDS011;6680;53.220;10.402;2023-05-01T00:04:21;4.83;;;3.77;;
13228;SDS011;6680;53.220;10.402;2023-05-01T00:06:47;5.97;;;4.10;;
13228;SDS011;6680;53.220;10.402;2023-05-01T00:09:14;7.50;;;4.50;;
13228;SDS011;6680;53.220;10.402;2023-05-01T00:11:42;5.40;;;4.33;;
13228;SDS011;6680;53.220;10.402;2023-05-01T00:14:10;4.50;;;4.10;;
13228;SDS011;6680;53.220;10.402;2023-05-01T00:16:36;4.83;;;4.13;;
13228;SDS011;6680;53.220;10.402;2023-05-01T00:19:03;6.67;;;4.33;;
13228;SDS011;6680;53.220;10.402;2023-05-01T00:21:30;6.03;;;4.60;;
13228;SDS011;6680;53.220;10.402;2023-05-01T00:23:57;5.93;;;3.90;;
13228;SDS011;6680;53.220;10.402;2023-05-01T00:26:23;7.20;;;3.63;;
13228;SDS011;6680;53.220;10.402;2023-05-01T00:28:55;5.23;;;3.70;;
13228;SDS011;6680;53.220;10.402;2023-05-01T00:31:22;8.40;;;4.13;;
13228;SDS011;6680;53.220;10.402;2023-05-01T00:33:49;8.60;;;4.40;;
13228;SDS011;6680;53.220;10.402;2023-05-01T00:36:16;7.60;;;4.40;;
13228;SDS011;6680;53.220;10.402;2023-05-01T00:38:43;6.93;;;4.23;;
13228;SDS011;6680;53.220;10.402;2023-05-01T00:41:10;8.20;;;4.83;;
13228;SDS011;6680;53.220;10.402;2023-05-01T00:43:37;11.17;;;4.53;;
13228;SDS011;6680;53.220;10.402;2023-05-01T00:46:05;7.13;;;4.10;;
13228;SDS011;6680;53.220;10.402;2023-05-01T00:48:33;5.80;;;4.17;;
13228;SDS011;6680;53.220;10.402;2023-05-01T00:51:00;8.03;;;4.10;;
13228;SDS011;6680;53.220;10.402;2023-05-01T00:53:29;4.83;;;3.90;;
13228;SDS011;6680;53.220;10.402;2023-05-01T00:55:58;7.07;;;3.83;;
13228;SDS011;6680;53.220;10.402;2023-05-01T00:58:25;5.57;;;3.80;;
13228;SDS011;6680;53.220;10.402;2023-05-01T01:00:52;6.07;;;4.40;;
13228;SDS011;6680;53.220;10.402;2023-05-01T01:03:21;7.57;;;3.87;;
13228;SDS011;6680;53.220;10.402;2023-05-01T01:05:50;9.70;;;4.13;;
13228;SDS011;6680;53.220;10.402;2023-05-01T01:08:21;10.00;;;3.87;;
13228;SDS011;6680;53.220;10.402;2023-05-01T01:10:53;5.93;;;3.70;;
13228;SDS011;6680;53.220;10.402;2023-05-01T01:13:27;5.63;;;4.20;;
13228;SDS011;6680;53.220;10.402;2023-05-01T01:15:59;6.20;;;3.80;;
13228;SDS011;6680;53.220;10.402;2023-05-01T01:18:35;5.33;;;3.60;;
13228;SDS011;6680;53.220;10.402;2023-05-01T01:21:07;4.87;;;3.93;;
13228;SDS011;6680;53.220;10.402;2023-05-01T01:23:54;5.13;;;3.60;;
13228;SDS011;6680;53.220;10.402;2023-05-01T01:26:38;5.47;;;4.50;;
13228;SDS011;6680;53.220;10.402;2023-05-01T01:29:43;6.23;;;4.00;;
13228;SDS011;6680;53.220;10.402;2023-05-01T01:32:33;5.03;;;4.00;;
13228;SDS011;6680;53.220;10.402;2023-05-01T01:35:23;5.20;;;3.33;;
13228;SDS011;6680;53.220;10.402;2023-05-01T01:37:53;4.60;;;3.57;;
13228;SDS011;6680;53.220;10.402;2023-05-01T01:40:28;7.30;;;3.90;;
13228;SDS011;6680;53.220;10.402;2023-05-01T01:43:01;5.83;;;4.00;;
13228;SDS011;6680;53.220;10.402;2023-05-01T01:45:32;6.97;;;3.23;;
13228;SDS011;6680;53.220;10.402;2023-05-01T01:48:02;5.13;;;3.63;;
13228;SDS011;6680;53.220;10.402;2023-05-01T01:50:33;4.03;;;3.67;;
13228;SDS011;6680;53.220;10.402;2023-05-01T01:53:03;6.27;;;4.13;;
13228;SDS011;6680;53.220;10.402;2023-05-01T01:55:33;7.43;;;3.77;;
13228;SDS011;6680;53.220;10.402;2023-05-01T01:58:02;5.97;;;3.70;;
13228;SDS011;6680;53.220;10.402;2023-05-01T02:00:31;7.07;;;3.80;;
13228;SDS011;6680;53.220;10.402;2023-05-01T02:02:59;4.70;;;3.70;;
13228;SDS011;6680;53.220;10.402;2023-05-01T02:05:27;8.37;;;4.17;;
13228;SDS011;6680;53.220;10.402;2023-05-01T02:07:55;4.97;;;3.70;;
13228;SDS011;6680;53.220;10.402;2023-05-01T02:10:24;6.13;;;3.43;;
13228;SDS011;6680;53.220;10.402;2023-05-01T02:12:52;7.17;;;4.03;;
13228;SDS011;6680;53.220;10.402;2023-05-01T02:15:21;4.97;;;4.00;;
13228;SDS011;6680;53.220;10.402;2023-05-01T02:17:50;6.60;;;3.50;;
13228;SDS011;6680;53.220;10.402;2023-05-01T02:20:18;4.37;;;3.40;;
13228;SDS011;6680;53.220;10.402;2023-05-01T02:22:46;3.33;;;3.00;;
13228;SDS011;6680;53.220;10.402;2023-05-01T02:25:17;5.43;;;3.60;;
13228;SDS011;6680;53.220;10.402;2023-05-01T02:27:45;7.60;;;4.20;;
13228;SDS011;6680;53.220;10.402;2023-05-01T02:30:16;5.40;;;3.37;;
13228;SDS011;6680;53.220;10.402;2023-05-01T02:32:43;5.30;;;3.70;;
13228;SDS011;6680;53.220;10.402;2023-05-01T02:35:10;5.63;;;4.13;;
13228;SDS011;6680;53.220;10.402;2023-05-01T02:37:37;5.03;;;3.17;;
13228;SDS011;6680;53.220;10.402;2023-05-01T02:40:05;4.67;;;3.43;;
13228;SDS011;6680;53.220;10.402;2023-05-01T02:42:34;5.20;;;3.73;;
13228;SDS011;6680;53.220;10.402;2023-05-01T02:45:03;8.33;;;4.30;;
13228;SDS011;6680;53.220;10.402;2023-05-01T02:47:34;6.73;;;3.50;;
13228;SDS011;6680;53.220;10.402;2023-05-01T02:50:04;4.70;;;3.80;;
13228;SDS011;6680;53.220;10.402;2023-05-01T02:52:32;4.53;;;3.50;;
13228;SDS011;6680;53.220;10.402;2023-05-01T02:55:01;8.10;;;3.80;;
13228;SDS011;6680;53.220;10.402;2023-05-01T02:57:31;5.83;;;3.40;;
13228;SDS011;6680;53.220;10.402;2023-05-01T02:59:59;4.30;;;3.10;;
13228;SDS011;6680;53.220;10.402;2023-05-01T03:02:25;5.03;;;3.50;;
13228;SDS011;6680;53.220;10.402;2023-05-01T03:04:52;4.77;;;3.30;;
13228;SDS011;6680;53.220;10.402;2023-05-01T03:07:19;5.97;;;3.57;;
13228;SDS011;6680;53.220;10.402;2023-05-01T03:09:45;5.53;;;3.73;;
13228;SDS011;6680;53.220;10.402;2023-05-01T03:12:12;7.50;;;3.60;;
13228;SDS011;6680;53.220;10.402;2023-05-01T03:14:39;4.20;;;3.30;;
13228;SDS011;6680;53.220;10.402;2023-05-01T03:17:07;5.87;;;4.03;;
13228;SDS011;6680;53.220;10.402;2023-05-01T03:19:34;5.67;;;3.60;;
13228;SDS011;6680;53.220;10.402;2023-05-01T03:22:01;7.97;;;4.20;;
13228;SDS011;6680;53.220;10.402;2023-05-01T03:24:28;7.20;;;3.63;;
13228;SDS011;6680;53.220;10.402;2023-05-01T03:26:55;4.17;;;3.77;;
13228;SDS011;6680;53.220;10.402;2023-05-01T03:29:21;5.60;;;3.53;;
13228;SDS011;6680;53.220;10.402;2023-05-01T03:31:48;6.10;;;3.87;;
13228;SDS011;6680;53.220;10.402;2023-05-01T03:34:16;5.03;;;3.00;;
13228;SDS011;6680;53.220;10.402;2023-05-01T03:36:43;4.53;;;3.60;;
13228;SDS011;6680;53.220;10.402;2023-05-01T03:39:10;8.00;;;4.23;;
13228;SDS011;6680;53.220;10.402;2023-05-01T03:41:36;5.43;;;3.70;;
13228;SDS011;6680;53.220;10.402;2023-05-01T03:44:03;6.33;;;4.47;;
13228;SDS011;6680;53.220;10.402;2023-05-01T03:46:30;7.30;;;3.47;;
13228;SDS011;6680;53.220;10.402;2023-05-01T03:48:57;7.10;;;3.87;;
13228;SDS011;6680;53.220;10.402;2023-05-01T03:51:25;5.07;;;3.87;;
13228;SDS011;6680;53.220;10.402;2023-05-01T03:53:52;5.60;;;3.90;;
13228;SDS011;6680;53.220;10.402;2023-05-01T03:56:20;5.83;;;3.90;;
13228;SDS011;6680;53.220;10.402;2023-05-01T03:58:49;5.40;;;3.50;;
13228;SDS011;6680;53.220;10.402;2023-05-01T04:01:16;12.23;;;4.37;;
13228;SDS011;6680;53.220;10.402;2023-05-01T04:03:43;5.00;;;4.50;;
13228;SDS011;6680;53.220;10.402;2023-05-01T04:06:10;5.83;;;4.30;;
13228;SDS011;6680;53.220;10.402;2023-05-01T04:08:39;6.27;;;3.40;;
13228;SDS011;6680;53.220;10.402;2023-05-01T04:11:06;3.83;;;3.27;;
13228;SDS011;6680;53.220;10.402;2023-05-01T04:13:33;5.83;;;4.00;;
13228;SDS011;6680;53.220;10.402;2023-05-01T04:15:59;6.13;;;3.40;;
13228;SDS011;6680;53.220;10.402;2023-05-01T04:18:26;4.93;;;3.57;;
13228;SDS011;6680;53.220;10.402;2023-05-01T04:20:53;5.93;;;3.83;;
13228;SDS011;6680;53.220;10.402;2023-05-01T04:23:20;5.77;;;4.13;;
13228;SDS011;6680;53.220;10.402;2023-05-01T04:25:48;4.07;;;3.37;;
13228;SDS011;6680;53.220;10.402;2023-05-01T04:28:14;8.43;;;4.17;;
13228;SDS011;6680;53.220;10.402;2023-05-01T04:30:41;5.13;;;3.73;;
13228;SDS011;6680;53.220;10.402;2023-05-01T04:33:08;4.20;;;3.50;;
13228;SDS011;6680;53.220;10.402;2023-05-01T04:35:35;8.03;;;3.60;;
13228;SDS011;6680;53.220;10.402;2023-05-01T04:38:03;5.83;;;3.63;;
13228;SDS011;6680;53.220;10.402;2023-05-01T04:40:29;9.27;;;3.90;;
13228;SDS011;6680;53.220;10.402;2023-05-01T04:42:58;7.17;;;4.07;;
13228;SDS011;6680;53.220;10.402;2023-05-01T04:45:25;4.60;;;3.23;;
13228;SDS011;6680;53.220;10.402;2023-05-01T04:47:51;6.40;;;4.07;;
13228;SDS011;6680;53.220;10.402;2023-05-01T04:50:18;4.47;;;3.60;;
13228;SDS011;6680;53.220;10.402;2023-05-01T04:52:45;4.43;;;3.33;;
13228;SDS011;6680;53.220;10.402;2023-05-01T04:55:12;4.47;;;3.80;;
13228;SDS011;6680;53.220;10.402;2023-05-01T04:57:39;5.30;;;3.70;;
13228;SDS011;6680;53.220;10.402;2023-05-01T05:00:07;7.00;;;3.80;;
13228;SDS011;6680;53.220;10.402;2023-05-01T05:02:35;8.13;;;3.63;;
13228;SDS011;6680;53.220;10.402;2023-05-01T05:05:01;5.00;;;4.23;;
13228;SDS011;6680;53.220;10.402;2023-05-01T05:07:28;5.77;;;3.80;;
13228;SDS011;6680;53.220;10.402;2023-05-01T05:09:55;7.23;;;3.97;;
13228;SDS011;6680;53.220;10.402;2023-05-01T05:12:22;4.23;;;3.83;;
13228;SDS011;6680;53.220;10.402;2023-05-01T05:14:49;9.20;;;4.10;;
13228;SDS011;6680;53.220;10.402;2023-05-01T05:17:17;4.93;;;4.00;;
13228;SDS011;6680;53.220;10.402;2023-05-01T05:19:43;6.07;;;3.63;;
13228;SDS011;6680;53.220;10.402;2023-05-01T05:22:10;6.83;;;3.97;;
13228;SDS011;6680;53.220;10.402;2023-05-01T05:24:37;6.17;;;3.53;;
13228;SDS011;6680;53.220;10.402;2023-05-01T05:27:04;4.80;;;3.80;;
13228;SDS011;6680;53.220;10.402;2023-05-01T05:29:31;6.00;;;3.83;;
13228;SDS011;6680;53.220;10.402;2023-05-01T05:31:59;4.73;;;3.50;;
13228;SDS011;6680;53.220;10.402;2023-05-01T05:34:27;5.60;;;3.53;;
13228;SDS011;6680;53.220;10.402;2023-05-01T05:36:53;6.17;;;3.90;;
13228;SDS011;6680;53.220;10.402;2023-05-01T05:39:20;5.50;;;3.80;;
13228;SDS011;6680;53.220;10.402;2023-05-01T05:41:47;5.17;;;3.90;;
13228;SDS011;6680;53.220;10.402;2023-05-01T05:44:14;7.20;;;3.77;;
13228;SDS011;6680;53.220;10.402;2023-05-01T05:46:41;5.33;;;3.30;;
13228;SDS011;6680;53.220;10.402;2023-05-01T05:49:07;4.57;;;3.60;;
13228;SDS011;6680;53.220;10.402;2023-05-01T05:51:37;5.67;;;3.47;;
13228;SDS011;6680;53.220;10.402;2023-05-01T05:54:03;4.33;;;3.13;;
13228;SDS011;6680;53.220;10.402;2023-05-01T05:56:30;4.40;;;3.10;;
13228;SDS011;6680;53.220;10.402;2023-05-01T05:58:57;4.60;;;3.10;;
13228;SDS011;6680;53.220;10.402;2023-05-01T06:01:27;3.37;;;3.00;;
13228;SDS011;6680;53.220;10.402;2023-05-01T06:03:54;5.57;;;3.40;;
13228;SDS011;6680;53.220;10.402;2023-05-01T06:06:20;6.33;;;3.20;;
13228;SDS011;6680;53.220;10.402;2023-05-01T06:08:49;5.50;;;3.57;;
13228;SDS011;6680;53.220;10.402;2023-05-01T06:11:16;4.37;;;3.37;;
13228;SDS011;6680;53.220;10.402;2023-05-01T06:13:42;4.77;;;3.20;;
13228;SDS011;6680;53.220;10.402;2023-05-01T06:16:09;4.80;;;3.37;;
13228;SDS011;6680;53.220;10.402;2023-05-01T06:18:36;3.97;;;3.50;;
13228;SDS011;6680;53.220;10.402;2023-05-01T06:21:03;4.60;;;3.20;;
13228;SDS011;6680;53.220;10.402;2023-05-01T06:23:30;9.40;;;3.90;;
13228;SDS011;6680;53.220;10.402;2023-05-01T06:25:59;3.67;;;3.33;;
13228;SDS011;6680;53.220;10.402;2023-05-01T06:28:26;5.40;;;3.30;;
13228;SDS011;6680;53.220;10.402;2023-05-01T06:30:52;4.90;;;3.33;;
13228;SDS011;6680;53.220;10.402;2023-05-01T06:33:19;5.17;;;3.67;;
13228;SDS011;6680;53.220;10.402;2023-05-01T06:35:47;4.67;;;3.40;;
13228;SDS011;6680;53.220;10.402;2023-05-01T06:38:13;4.23;;;3.40;;
13228;SDS011;6680;53.220;10.402;2023-05-01T06:40:40;5.03;;;3.73;;
13228;SDS011;6680;53.220;10.402;2023-05-01T06:43:08;7.67;;;3.70;;
13228;SDS011;6680;53.220;10.402;2023-05-01T06:45:35;4.80;;;3.27;;
13228;SDS011;6680;53.220;10.402;2023-05-01T06:48:04;8.90;;;3.63;;
13228;SDS011;6680;53.220;10.402;2023-05-01T06:50:30;6.57;;;3.20;;
13228;SDS011;6680;53.220;10.402;2023-05-01T06:52:57;8.07;;;3.77;;
13228;SDS011;6680;53.220;10.402;2023-05-01T06:55:25;5.93;;;3.37;;
13228;SDS011;6680;53.220;10.402;2023-05-01T06:57:55;4.37;;;3.00;;
13228;SDS011;6680;53.220;10.402;2023-05-01T07:00:23;3.63;;;2.83;;
13228;SDS011;6680;53.220;10.402;2023-05-01T07:02:49;4.17;;;3.20;;
13228;SDS011;6680;53.220;10.402;2023-05-01T07:05:16;5.17;;;3.40;;
13228;SDS011;6680;53.220;10.402;2023-05-01T07:07:43;5.93;;;3.17;;
13228;SDS011;6680;53.220;10.402;2023-05-01T07:10:10;5.20;;;3.23;;
13228;SDS011;6680;53.220;10.402;2023-05-01T07:12:36;3.77;;;3.30;;
13228;SDS011;6680;53.220;10.402;2023-05-01T07:15:03;5.97;;;3.07;;
13228;SDS011;6680;53.220;10.402;2023-05-01T07:17:32;4.80;;;3.33;;
13228;SDS011;6680;53.220;10.402;2023-05-01T07:20:00;4.37;;;3.00;;
13228;SDS011;6680;53.220;10.402;2023-05-01T07:22:29;5.97;;;3.20;;
13228;SDS011;6680;53.220;10.402;2023-05-01T07:24:55;3.23;;;2.93;;
13228;SDS011;6680;53.220;10.402;2023-05-01T07:27:22;3.90;;;3.10;;
13228;SDS011;6680;53.220;10.402;2023-05-01T07:29:49;3.80;;;3.20;;
13228;SDS011;6680;53.220;10.402;2023-05-01T07:32:16;3.77;;;3.00;;
13228;SDS011;6680;53.220;10.402;2023-05-01T07:34:44;3.27;;;2.97;;
13228;SDS011;6680;53.220;10.402;2023-05-01T07:37:10;3.37;;;3.00;;
13228;SDS011;6680;53.220;10.402;2023-05-01T07:39:37;5.87;;;3.43;;
13228;SDS011;6680;53.220;10.402;2023-05-01T07:42:04;4.93;;;3.27;;
13228;SDS011;6680;53.220;10.402;2023-05-01T07:44:30;5.80;;;3.13;;
13228;SDS011;6680;53.220;10.402;2023-05-01T07:47:01;5.60;;;2.93;;
13228;SDS011;6680;53.220;10.402;2023-05-01T07:49:28;4.33;;;3.33;;
13228;SDS011;6680;53.220;10.402;2023-05-01T07:51:56;4.97;;;2.93;;
13228;SDS011;6680;53.220;10.402;2023-05-01T07:54:23;5.07;;;3.13;;
13228;SDS011;6680;53.220;10.402;2023-05-01T07:56:49;3.50;;;3.20;;
13228;SDS011;6680;53.220;10.402;2023-05-01T07:59:16;3.13;;;2.30;;
13228;SDS011;6680;53.220;10.402;2023-05-01T08:01:43;5.67;;;2.93;;
13228;SDS011;6680;53.220;10.402;2023-05-01T08:04:09;3.80;;;2.80;;
13228;SDS011;6680;53.220;10.402;2023-05-01T08:06:36;3.60;;;3.27;;
13228;SDS011;6680;53.220;10.402;2023-05-01T08:09:04;3.37;;;2.63;;
13228;SDS011;6680;53.220;10.402;2023-05-01T08:11:31;7.20;;;4.00;;
13228;SDS011;6680;53.220;10.402;2023-05-01T08:13:58;5.80;;;3.30;;
13228;SDS011;6680;53.220;10.402;2023-05-01T08:16:25;8.87;;;3.10;;
13228;SDS011;6680;53.220;10.402;2023-05-01T08:18:52;6.40;;;3.23;;
13228;SDS011;6680;53.220;10.402;2023-05-01T08:21:19;4.37;;;2.60;;
13228;SDS011;6680;53.220;10.402;2023-05-01T08:23:45;4.10;;;2.80;;
13228;SDS011;6680;53.220;10.402;2023-05-01T08:26:16;2.77;;;2.40;;
13228;SDS011;6680;53.220;10.402;2023-05-01T08:28:43;5.07;;;2.83;;
13228;SDS011;6680;53.220;10.402;2023-05-01T08:31:10;5.40;;;3.20;;
13228;SDS011;6680;53.220;10.402;2023-05-01T08:33:36;6.93;;;2.97;;
13228;SDS011;6680;53.220;10.402;2023-05-01T08:36:06;4.57;;;3.23;;
13228;SDS011;6680;53.220;10.402;2023-05-01T08:38:33;2.77;;;2.50;;
13228;SDS011;6680;53.220;10.402;2023-05-01T08:40:59;3.93;;;2.90;;
13228;SDS011;6680;53.220;10.402;2023-05-01T08:43:28;4.17;;;2.70;;
13228;SDS011;6680;53.220;10.402;2023-05-01T08:45:56;5.97;;;2.60;;
13228;SDS011;6680;53.220;10.402;2023-05-01T08:48:25;3.10;;;2.50;;
13228;SDS011;6680;53.220;10.402;2023-05-01T08:50:54;3.07;;;2.43;;
13228;SDS011;6680;53.220;10.402;2023-05-01T08:53:22;3.97;;;2.30;;
13228;SDS011;6680;53.220;10.402;2023-05-01T08:55:50;3.50;;;2.27;;
13228;SDS011;6680;53.220;10.402;2023-05-01T08:58:17;2.67;;;2.47;;
13228;SDS011;6680;53.220;10.402;2023-05-01T09:00:46;4.37;;;2.60;;
13228;SDS011;6680;53.220;10.402;2023-05-01T09:03:13;5.00;;;2.70;;
13228;SDS011;6680;53.220;10.402;2023-05-01T09:05:41;3.10;;;2.50;;
13228;SDS011;6680;53.220;10.402;2023-05-01T09:08:08;4.93;;;3.07;;
13228;SDS011;6680;53.220;10.402;2023-05-01T09:10:36;3.53;;;3.10;;
13228;SDS011;6680;53.220;10.402;2023-05-01T09:13:06;5.70;;;3.13;;
13228;SDS011;6680;53.220;10.402;2023-05-01T09:15:33;3.50;;;2.60;;
13228;SDS011;6680;53.220;10.402;2023-05-01T09:18:02;4.13;;;2.80;;
13228;SDS011;6680;53.220;10.402;2023-05-01T09:20:29;4.63;;;3.13;;
13228;SDS011;6680;53.220;10.402;2023-05-01T09:22:57;3.00;;;2.40;;
13228;SDS011;6680;53.220;10.402;2023-05-01T09:25:24;4.10;;;2.90;;
13228;SDS011;6680;53.220;10.402;2023-05-01T09:27:50;2.93;;;2.67;;
13228;SDS011;6680;53.220;10.402;2023-05-01T09:30:30;7.70;;;3.40;;
13228;SDS011;6680;53.220;10.402;2023-05-01T09:33:04;4.63;;;3.47;;
13228;SDS011;6680;53.220;10.402;2023-05-01T09:35:32;6.00;;;2.90;;
13228;SDS011;6680;53.220;10.402;2023-05-01T09:38:16;3.60;;;3.10;;
13228;SDS011;6680;53.220;10.402;2023-05-01T09:40:43;6.17;;;3.47;;
13228;SDS011;6680;53.220;10.402;2023-05-01T09:43:10;7.43;;;3.40;;
13228;SDS011;6680;53.220;10.402;2023-05-01T09:45:37;3.70;;;3.20;;
13228;SDS011;6680;53.220;10.402;2023-05-01T09:48:07;5.20;;;3.50;;
13228;SDS011;6680;53.220;10.402;2023-05-01T09:50:35;4.03;;;2.90;;
13228;SDS011;6680;53.220;10.402;2023-05-01T09:53:03;4.30;;;3.10;;
13228;SDS011;6680;53.220;10.402;2023-05-01T09:55:31;4.87;;;3.50;;
13228;SDS011;6680;53.220;10.402;2023-05-01T09:57:58;3.83;;;3.00;;
13228;SDS011;6680;53.220;10.402;2023-05-01T10:00:25;5.90;;;3.07;;
13228;SDS011;6680;53.220;10.402;2023-05-01T10:02:54;3.50;;;3.20;;
13228;SDS011;6680;53.220;10.402;2023-05-01T10:05:22;10.40;;;3.83;;
13228;SDS011;6680;53.220;10.402;2023-05-01T10:07:55;5.30;;;3.20;;
13228;SDS011;6680;53.220;10.402;2023-05-01T10:10:23;5.17;;;3.40;;
13228;SDS011;6680;53.220;10.402;2023-05-01T10:12:50;5.00;;;3.83;;
13228;SDS011;6680;53.220;10.402;2023-05-01T10:15:17;7.20;;;3.90;;
13228;SDS011;6680;53.220;10.402;2023-05-01T10:17:45;5.93;;;3.37;;
13228;SDS011;6680;53.220;10.402;2023-05-01T10:20:15;4.47;;;3.13;;
13228;SDS011;6680;53.220;10.402;2023-05-01T10:22:43;4.20;;;2.90;;
13228;SDS011;6680;53.220;10.402;2023-05-01T10:25:10;4.63;;;3.00;;
13228;SDS011;6680;53.220;10.402;2023-05-01T10:27:38;3.17;;;2.87;;
13228;SDS011;6680;53.220;10.402;2023-05-01T10:30:05;4.07;;;3.20;;
13228;SDS011;6680;53.220;10.402;2023-05-01T10:32:34;3.57;;;3.27;;
13228;SDS011;6680;53.220;10.402;2023-05-01T10:35:03;5.60;;;3.37;;
13228;SDS011;6680;53.220;10.402;2023-05-01T10:37:34;6.70;;;3.27;;
13228;SDS011;6680;53.220;10.402;2023-05-01T10:43:14;5.40;;;3.00;;
13228;SDS011;6680;53.220;10.402;2023-05-01T10:45:42;5.00;;;2.80;;
13228;SDS011;6680;53.220;10.402;2023-05-01T10:48:09;5.63;;;2.90;;
13228;SDS011;6680;53.220;10.402;2023-05-01T10:53:32;4.77;;;2.93;;
13228;SDS011;6680;53.220;10.402;2023-05-01T10:56:00;4.90;;;2.67;;
13228;SDS011;6680;53.220;10.402;2023-05-01T11:01:28;5.30;;;3.50;;
13228;SDS011;6680;53.220;10.402;2023-05-01T11:03:56;3.10;;;2.80;;
13228;SDS011;6680;53.220;10.402;2023-05-01T11:06:24;3.40;;;2.80;;
13228;SDS011;6680;53.220;10.402;2023-05-01T11:08:52;5.23;;;3.13;;
13228;SDS011;6680;53.220;10.402;2023-05-01T11:14:14;5.77;;;3.10;;
13228;SDS011;6680;53.220;10.402;2023-05-01T11:16:42;11.03;;;3.27;;
13228;SDS011;6680;53.220;10.402;2023-05-01T11:22:14;5.07;;;3.20;;
13228;SDS011;6680;53.220;10.402;2023-05-01T11:24:41;5.03;;;3.13;;
13228;SDS011;6680;53.220;10.402;2023-05-01T11:27:13;5.43;;;3.40;;
13228;SDS011;6680;53.220;10.402;2023-05-01T11:29:40;3.37;;;3.07;;
13228;SDS011;6680;53.220;10.402;2023-05-01T11:32:23;3.20;;;2.70;;
13228;SDS011;6680;53.220;10.402;2023-05-01T11:34:52;4.93;;;3.10;;
13228;SDS011;6680;53.220;10.402;2023-05-01T11:37:19;4.10;;;3.10;;
13228;SDS011;6680;53.220;10.402;2023-05-01T11:40:04;5.57;;;2.80;;
13228;SDS011;6680;53.220;10.402;2023-05-01T11:42:46;4.10;;;3.03;;
13228;SDS011;6680;53.220;10.402;2023-05-01T11:45:13;4.37;;;2.63;;
13228;SDS011;6680;53.220;10.402;2023-05-01T11:47:40;4.20;;;2.73;;
13228;SDS011;6680;53.220;10.402;2023-05-01T11:50:07;4.97;;;3.50;;
13228;SDS011;6680;53.220;10.402;2023-05-01T11:52:42;4.80;;;3.00;;
13228;SDS011;6680;53.220;10.402;2023-05-01T11:55:10;4.00;;;2.93;;
13228;SDS011;6680;53.220;10.402;2023-05-01T12:00:26;3.23;;;2.47;;
13228;SDS011;6680;53.220;10.402;2023-05-01T12:02:55;3.70;;;3.00;;
13228;SDS011;6680;53.220;10.402;2023-05-01T12:05:26;3.87;;;2.70;;
13228;SDS011;6680;53.220;10.402;2023-05-01T12:08:10;4.70;;;3.03;;
13228;SDS011;6680;53.220;10.402;2023-05-01T12:10:39;4.50;;;2.63;;
13228;SDS011;6680;53.220;10.402;2023-05-01T12:13:11;3.60;;;2.50;;
13228;SDS011;6680;53.220;10.402;2023-05-01T12:15:41;4.20;;;2.63;;
13228;SDS011;6680;53.220;10.402;2023-05-01T12:18:09;4.37;;;3.13;;
13228;SDS011;6680;53.220;10.402;2023-05-01T12:20:37;6.30;;;3.43;;
13228;SDS011;6680;53.220;10.402;2023-05-01T12:23:06;4.27;;;2.60;;
13228;SDS011;6680;53.220;10.402;2023-05-01T12:25:34;3.90;;;3.10;;
13228;SDS011;6680;53.220;10.402;2023-05-01T12:28:06;6.43;;;3.13;;
13228;SDS011;6680;53.220;10.402;2023-05-01T12:30:36;3.40;;;2.43;;
13228;SDS011;6680;53.220;10.402;2023-05-01T12:33:10;4.13;;;2.90;;
13228;SDS011;6680;53.220;10.402;2023-05-01T12:35:37;4.83;;;3.17;;
13228;SDS011;6680;53.220;10.402;2023-05-01T12:38:14;4.30;;;2.83;;
13228;SDS011;6680;53.220;10.402;2023-05-01T12:40:49;4.47;;;2.87;;
13228;SDS011;6680;53.220;10.402;2023-05-01T12:43:17;5.50;;;3.13;;
13228;SDS011;6680;53.220;10.402;2023-05-01T12:45:46;5.77;;;2.60;;
13228;SDS011;6680;53.220;10.402;2023-05-01T12:48:17;5.10;;;3.07;;
13228;SDS011;6680;53.220;10.402;2023-05-01T12:50:44;2.73;;;2.53;;
13228;SDS011;6680;53.220;10.402;2023-05-01T12:53:12;3.47;;;2.93;;
13228;SDS011;6680;53.220;10.402;2023-05-01T12:55:43;3.87;;;2.63;;
13228;SDS011;6680;53.220;10.402;2023-05-01T12:58:11;2.83;;;2.63;;
13228;SDS011;6680;53.220;10.402;2023-05-01T13:00:46;4.10;;;2.43;;
13228;SDS011;6680;53.220;10.402;2023-05-01T13:03:13;2.90;;;2.60;;
13228;SDS011;6680;53.220;10.402;2023-05-01T13:05:48;3.47;;;2.23;;
13228;SDS011;6680;53.220;10.402;2023-05-01T13:08:24;5.30;;;2.70;;
13228;SDS011;6680;53.220;10.402;2023-05-01T13:10:52;5.30;;;3.10;;
13228;SDS011;6680;53.220;10.402;2023-05-01T13:13:24;4.50;;;3.07;;
13228;SDS011;6680;53.220;10.402;2023-05-01T13:16:06;5.23;;;3.07;;
13228;SDS011;6680;53.220;10.402;2023-05-01T13:18:43;3.30;;;3.00;;
13228;SDS011;6680;53.220;10.402;2023-05-01T13:21:11;10.63;;;3.03;;
13228;SDS011;6680;53.220;10.402;2023-05-01T13:23:40;3.73;;;2.90;;
13228;SDS011;6680;53.220;10.402;2023-05-01T13:26:08;4.17;;;2.97;;
13228;SDS011;6680;53.220;10.402;2023-05-01T13:28:40;4.67;;;3.90;;
13228;SDS011;6680;53.220;10.402;2023-05-01T13:31:11;5.40;;;3.50;;
13228;SDS011;6680;53.220;10.402;2023-05-01T13:33:39;3.50;;;3.07;;
13228;SDS011;6680;53.220;10.402;2023-05-01T13:36:07;4.20;;;3.10;;
13228;SDS011;6680;53.220;10.402;2023-05-01T13:38:40;3.40;;;3.10;;
13228;SDS011;6680;53.220;10.402;2023-05-01T13:41:12;3.70;;;3.37;;
13228;SDS011;6680;53.220;10.402;2023-05-01T13:43:40;7.17;;;3.60;;
13228;SDS011;6680;53.220;10.402;2023-05-01T13:46:07;5.23;;;3.00;;
13228;SDS011;6680;53.220;10.402;2023-05-01T13:48:40;3.93;;;3.30;;
13228;SDS011;6680;53.220;10.402;2023-05-01T13:51:07;4.00;;;3.30;;
13228;SDS011;6680;53.220;10.402;2023-05-01T13:53:34;4.53;;;3.33;;
13228;SDS011;6680;53.220;10.402;2023-05-01T13:56:02;7.37;;;3.23;;
13228;SDS011;6680;53.220;10.402;2023-05-01T13:58:29;3.57;;;2.80;;
13228;SDS011;6680;53.220;10.402;2023-05-01T14:00:57;3.00;;;2.70;;
13228;SDS011;6680;53.220;10.402;2023-05-01T14:03:24;3.50;;;3.20;;
13228;SDS011;6680;53.220;10.402;2023-05-01T14:05:52;4.27;;;3.00;;
13228;SDS011;6680;53.220;10.402;2023-05-01T14:08:19;3.37;;;2.90;;
13228;SDS011;6680;53.220;10.402;2023-05-01T14:10:46;4.17;;;3.57;;
13228;SDS011;6680;53.220;10.402;2023-05-01T14:13:14;3.77;;;2.50;;
13228;SDS011;6680;53.220;10.402;2023-05-01T14:15:43;2.20;;;2.03;;
13228;SDS011;6680;53.220;10.402;2023-05-01T14:18:10;2.20;;;2.00;;
13228;SDS011;6680;53.220;10.402;2023-05-01T14:20:41;2.40;;;2.20;;
13228;SDS011;6680;53.220;10.402;2023-05-01T14:23:15;2.10;;;1.87;;
13228;SDS011;6680;53.220;10.402;2023-05-01T14:25:47;2.57;;;2.37;;
13228;SDS011;6680;53.220;10.402;2023-05-01T14:28:14;2.23;;;2.10;;
13228;SDS011;6680;53.220;10.402;2023-05-01T14:30:42;3.17;;;1.77;;
13228;SDS011;6680;53.220;10.402;2023-05-01T14:33:10;2.17;;;1.97;;
13228;SDS011;6680;53.220;10.402;2023-05-01T14:35:41;2.47;;;2.03;;
13228;SDS011;6680;53.220;10.402;2023-05-01T14:38:12;1.67;;;1.57;;
13228;SDS011;6680;53.220;10.402;2023-05-01T14:40:42;2.60;;;2.30;;
13228;SDS011;6680;53.220;10.402;2023-05-01T14:43:12;4.37;;;2.20;;
13228;SDS011;6680;53.220;10.402;2023-05-01T14:45:40;2.10;;;1.70;;
13228;SDS011;6680;53.220;10.402;2023-05-01T14:48:09;3.20;;;2.37;;
13228;SDS011;6680;53.220;10.402;2023-05-01T14:50:40;2.00;;;1.87;;
13228;SDS011;6680;53.220;10.402;2023-05-01T14:53:07;2.53;;;2.00;;
13228;SDS011;6680;53.220;10.402;2023-05-01T14:55:35;2.30;;;2.10;;
13228;SDS011;6680;53.220;10.402;2023-05-01T14:58:05;1.93;;;1.83;;
13228;SDS011;6680;53.220;10.402;2023-05-01T15:00:35;3.23;;;2.30;;
13228;SDS011;6680;53.220;10.402;2023-05-01T15:03:02;2.57;;;1.80;;
13228;SDS011;6680;53.220;10.402;2023-05-01T15:05:28;2.33;;;2.07;;
13228;SDS011;6680;53.220;10.402;2023-05-01T15:07:55;2.40;;;1.70;;
13228;SDS011;6680;53.220;10.402;2023-05-01T15:10:24;2.10;;;1.90;;
13228;SDS011;6680;53.220;10.402;2023-05-01T15:12:52;2.27;;;2.07;;
13228;SDS011;6680;53.220;10.402;2023-05-01T15:15:21;2.57;;;1.77;;